createdAt,value
2018-05-13T00:01:01.072Z,97718.43
2018-05-13T00:03:28.549Z,97716.06
2018-05-13T00:05:56.024Z,97717.73
2018-05-13T00:08:23.524Z,97717.50
2018-05-13T00:10:51.083Z,97713.78
2018-05-13T00:13:18.505Z,97714.63
2018-05-13T00:15:45.974Z,97706.18
2018-05-13T00:18:13.475Z,97706.70
2018-05-13T00:20:40.953Z,97704.92
2018-05-13T00:23:08.419Z,97702.05
2018-05-13T00:25:35.915Z,97709.19
2018-05-13T00:28:03.379Z,97706.49
2018-05-13T00:30:30.864Z,97707.96
2018-05-13T00:32:58.346Z,97706.07
2018-05-13T00:35:25.828Z,97701.56
2018-05-13T00:37:53.311Z,97698.67
2018-05-13T00:40:20.791Z,97699.30
2018-05-13T00:42:48.255Z,97698.42
2018-05-13T00:45:15.723Z,97696.95
2018-05-13T00:47:43.214Z,97689.23
2018-05-13T00:50:10.680Z,97690.39
2018-05-13T00:52:38.173Z,97692.31
2018-05-13T00:55:05.648Z,97688.95
2018-05-13T00:57:33.134Z,97687.62
2018-05-13T01:00:00.593Z,97688.12
2018-05-13T01:02:28.148Z,97684.41
2018-05-13T01:04:55.572Z,97687.00
2018-05-13T01:07:23.049Z,97687.41
2018-05-13T01:09:50.532Z,97688.11
2018-05-13T01:12:18.004Z,97690.41
2018-05-13T01:14:45.483Z,97690.13
2018-05-13T01:17:12.951Z,97690.62
2018-05-13T01:19:40.799Z,97691.34
2018-05-13T01:22:08.271Z,97695.39
2018-05-13T01:24:35.769Z,97693.54
2018-05-13T01:27:03.240Z,97694.25
2018-05-13T01:29:30.800Z,97690.81
2018-05-13T01:31:58.304Z,97687.38
2018-05-13T01:34:25.768Z,97688.09
2018-05-13T01:36:53.336Z,97683.73
2018-05-13T01:39:20.808Z,97690.40
2018-05-13T01:41:48.319Z,97679.69
2018-05-13T01:44:15.784Z,97687.56
2018-05-13T01:46:43.280Z,97682.52
2018-05-13T01:49:10.746Z,97685.92
2018-05-13T01:51:38.216Z,97681.63
2018-05-13T01:54:05.712Z,97680.72
2018-05-13T01:56:34.186Z,97679.28
2018-05-13T01:59:01.675Z,97676.95
2018-05-13T02:01:29.153Z,97678.45
2018-05-13T02:03:56.637Z,97668.64
2018-05-13T02:06:24.096Z,97670.76
2018-05-13T02:08:51.563Z,97674.05
2018-05-13T02:11:19.055Z,97669.76
2018-05-13T02:13:46.516Z,97666.52
2018-05-13T02:16:14.000Z,97663.67
2018-05-13T02:18:41.477Z,97665.06
2018-05-13T02:21:08.976Z,97668.44
2018-05-13T02:23:36.455Z,97668.15
2018-05-13T02:26:04.220Z,97669.00
2018-05-13T02:28:32.618Z,97672.06
2018-05-13T02:31:00.123Z,97665.79
2018-05-13T02:33:27.744Z,97668.64
2018-05-13T02:35:55.219Z,97675.55
2018-05-13T02:38:22.708Z,97676.72
2018-05-13T02:40:50.172Z,97665.40
2018-05-13T02:43:17.664Z,97670.19
2018-05-13T02:45:45.141Z,97669.91
2018-05-13T02:48:12.617Z,97665.68
2018-05-13T02:50:41.091Z,97663.69
2018-05-13T02:53:08.565Z,97662.53
2018-05-13T02:55:36.056Z,97656.03
2018-05-13T02:58:03.528Z,97656.36
2018-05-13T03:00:31.017Z,97660.72
2018-05-13T03:02:58.485Z,97656.79
2018-05-13T03:05:25.956Z,97656.30
2018-05-13T03:07:53.451Z,97659.33
2018-05-13T03:10:20.919Z,97658.42
2018-05-13T03:12:48.414Z,97662.28
2018-05-13T03:15:15.894Z,97659.00
2018-05-13T03:17:43.391Z,97657.09
2018-05-13T03:20:10.860Z,97663.72
2018-05-13T03:22:38.337Z,97664.74
2018-05-13T03:25:06.084Z,97660.02
2018-05-13T03:27:33.556Z,97660.33
2018-05-13T03:30:01.045Z,97656.80
2018-05-13T03:32:28.516Z,97658.35
2018-05-13T03:34:56.236Z,97659.93
2018-05-13T03:37:23.740Z,97661.77
2018-05-13T03:39:51.223Z,97662.58
2018-05-13T03:42:18.719Z,97662.56
2018-05-13T03:44:46.201Z,97662.34
2018-05-13T03:47:13.689Z,97666.86
2018-05-13T03:49:41.169Z,97661.00
2018-05-13T03:52:08.639Z,97665.00
2018-05-13T03:54:36.124Z,97674.19
2018-05-13T03:57:03.601Z,97670.34
2018-05-13T03:59:31.089Z,97670.00
2018-05-13T04:01:58.568Z,97676.67
2018-05-13T04:04:26.041Z,97668.22
2018-05-13T04:06:53.524Z,97667.38
2018-05-13T04:09:32.797Z,97661.52
2018-05-13T04:12:11.895Z,97659.89
2018-05-13T04:14:52.055Z,97667.80
2018-05-13T04:17:19.525Z,97664.61
2018-05-13T04:19:46.996Z,97661.81
2018-05-13T04:22:14.488Z,97667.31
2018-05-13T04:24:41.955Z,97663.92
2018-05-13T04:27:09.451Z,97664.53
2018-05-13T04:29:36.920Z,97664.84
2018-05-13T04:32:04.420Z,97663.32
2018-05-13T04:34:31.886Z,97663.20
2018-05-13T04:36:59.352Z,97662.23
2018-05-13T04:39:26.831Z,97659.45
2018-05-13T04:41:54.460Z,97658.87
2018-05-13T04:44:21.949Z,97661.92
2018-05-13T04:46:49.415Z,97661.68
2018-05-13T04:49:16.911Z,97664.59
2018-05-13T04:51:44.388Z,97662.86
2018-05-13T04:54:11.863Z,97659.03
2018-05-13T04:56:39.353Z,97659.70
2018-05-13T04:59:06.821Z,97656.38
2018-05-13T05:01:34.311Z,97649.31
2018-05-13T05:04:01.787Z,97654.94
2018-05-13T05:06:29.274Z,97659.23
2018-05-13T05:08:56.798Z,97659.04
2018-05-13T05:11:24.326Z,97654.10
2018-05-13T05:13:51.757Z,97655.34
2018-05-13T05:16:19.246Z,97648.80
2018-05-13T05:18:46.716Z,97651.34
2018-05-13T05:21:14.191Z,97651.23
2018-05-13T05:23:41.673Z,97653.81
2018-05-13T05:26:09.148Z,97653.91
2018-05-13T05:28:36.641Z,97656.27
2018-05-13T05:31:04.109Z,97649.08
2018-05-13T05:33:31.596Z,97656.21
2018-05-13T05:35:59.069Z,97653.34
2018-05-13T05:38:26.540Z,97655.84
2018-05-13T05:40:54.020Z,97655.09
2018-05-13T05:43:21.492Z,97650.44
2018-05-13T05:45:49.215Z,97646.20
2018-05-13T05:48:16.693Z,97651.06
2018-05-13T05:50:44.204Z,97647.19
2018-05-13T05:53:11.669Z,97650.02
2018-05-13T05:55:39.142Z,97647.92
2018-05-13T05:58:06.635Z,97647.36
2018-05-13T06:00:34.108Z,97647.46
2018-05-13T06:03:01.589Z,97640.58
2018-05-13T06:05:29.066Z,97638.28
2018-05-13T06:07:56.561Z,97644.29
2018-05-13T06:10:24.034Z,97639.24
2018-05-13T06:12:51.520Z,97649.09
2018-05-13T06:15:18.995Z,97650.75
2018-05-13T06:17:46.465Z,97652.64
2018-05-13T06:20:13.962Z,97651.45
2018-05-13T06:22:41.442Z,97650.44
2018-05-13T06:25:09.434Z,97650.05
2018-05-13T06:27:36.826Z,97649.06
2018-05-13T06:30:04.382Z,97651.17
2018-05-13T06:32:32.135Z,97645.57
2018-05-13T06:34:59.641Z,97645.83
2018-05-13T06:37:27.103Z,97642.38
2018-05-13T06:39:54.577Z,97641.49
2018-05-13T06:42:22.059Z,97639.44
2018-05-13T06:44:49.522Z,97638.19
2018-05-13T06:47:17.011Z,97636.91
2018-05-13T06:49:44.484Z,97633.05
2018-05-13T06:52:11.987Z,97635.72
2018-05-13T06:54:39.551Z,97628.49
2018-05-13T06:57:07.008Z,97619.28
2018-05-13T06:59:34.489Z,97619.59
2018-05-13T07:02:02.045Z,97620.70
2018-05-13T07:04:29.614Z,97616.20
2018-05-13T07:06:57.232Z,97611.86
2018-05-13T07:09:24.950Z,97609.41
2018-05-13T07:11:52.428Z,97609.12
2018-05-13T07:14:19.942Z,97610.50
2018-05-13T07:16:47.412Z,97609.58
2018-05-13T07:19:15.688Z,97607.44
2018-05-13T07:21:43.541Z,97607.61
2018-05-13T07:24:11.000Z,97603.22
2018-05-13T07:26:38.487Z,97599.16
2018-05-13T07:29:05.948Z,97607.64
2018-05-13T07:31:33.434Z,97595.23
2018-05-13T07:34:00.893Z,97597.12
2018-05-13T07:36:28.368Z,97601.46
2018-05-13T07:38:55.855Z,97592.45
2018-05-13T07:41:23.349Z,97590.61
2018-05-13T07:43:50.898Z,97588.77
2018-05-13T07:46:19.117Z,97594.72
2018-05-13T07:48:46.577Z,97590.77
2018-05-13T07:51:14.048Z,97588.48
2018-05-13T07:53:41.516Z,97586.23
2018-05-13T07:56:08.995Z,97583.76
2018-05-13T07:58:36.463Z,97580.72
2018-05-13T08:01:03.937Z,97569.77
2018-05-13T08:03:31.432Z,97561.55
2018-05-13T08:05:58.899Z,97563.73
2018-05-13T08:08:26.559Z,97556.87
2018-05-13T08:10:54.030Z,97555.16
2018-05-13T08:13:21.505Z,97558.38
2018-05-13T08:15:49.011Z,97556.56
2018-05-13T08:18:16.476Z,97554.52
2018-05-13T08:20:43.959Z,97557.44
2018-05-13T08:23:11.423Z,97555.48
2018-05-13T08:25:38.909Z,97551.64
2018-05-13T08:28:06.383Z,97554.05
2018-05-13T08:30:33.851Z,97550.26
2018-05-13T08:33:01.677Z,97544.91
2018-05-13T08:35:29.173Z,97546.77
2018-05-13T08:37:56.672Z,97540.64
2018-05-13T08:40:24.823Z,97537.57
2018-05-13T08:42:52.316Z,97539.94
2018-05-13T08:45:19.774Z,97532.77
2018-05-13T08:47:47.260Z,97531.84
2018-05-13T08:50:14.739Z,97533.04
2018-05-13T08:52:42.228Z,97526.88
2018-05-13T08:55:09.711Z,97525.66
2018-05-13T08:57:37.175Z,97529.19
2018-05-13T09:00:04.663Z,97521.12
2018-05-13T09:02:32.151Z,97521.01
2018-05-13T09:04:59.606Z,97527.83
2018-05-13T09:07:27.188Z,97516.27
2018-05-13T09:09:54.651Z,97518.83
2018-05-13T09:12:22.156Z,97517.34
2018-05-13T09:14:49.619Z,97515.24
2018-05-13T09:17:17.082Z,97510.97
2018-05-13T09:19:44.555Z,97516.60
2018-05-13T09:22:12.020Z,97509.41
2018-05-13T09:24:39.503Z,97515.88
2018-05-13T09:27:06.966Z,97507.92
2018-05-13T09:29:34.423Z,97502.66
2018-05-13T09:32:02.077Z,97509.15
2018-05-13T09:34:29.536Z,97501.28
2018-05-13T09:36:57.027Z,97502.73
2018-05-13T09:39:24.503Z,97500.45
2018-05-13T09:41:52.084Z,97491.42
2018-05-13T09:44:19.556Z,97489.13
2018-05-13T09:46:47.012Z,97493.75
2018-05-13T09:49:14.504Z,97490.88
2018-05-13T09:51:41.959Z,97486.72
2018-05-13T09:54:09.404Z,97492.48
2018-05-13T09:56:36.888Z,97489.19
2018-05-13T09:59:04.365Z,97487.45
2018-05-13T10:01:31.858Z,97483.38
2018-05-13T10:03:59.412Z,97481.41
2018-05-13T10:06:26.809Z,97479.03
2018-05-13T10:08:54.281Z,97481.50
2018-05-13T10:11:21.744Z,97470.19
2018-05-13T10:13:49.236Z,97477.37
2018-05-13T10:16:16.715Z,97486.72
2018-05-13T10:18:44.167Z,97475.16
2018-05-13T10:21:11.675Z,97474.27
2018-05-13T10:23:39.572Z,97477.22
2018-05-13T10:26:07.052Z,97469.78
2018-05-13T10:28:34.515Z,97475.11
2018-05-13T10:31:01.985Z,97472.73
2018-05-13T10:33:29.471Z,97473.94
2018-05-13T10:35:56.953Z,97471.72
2018-05-13T10:38:24.425Z,97464.73
2018-05-13T10:40:51.875Z,97464.94
2018-05-13T10:43:19.342Z,97463.78
2018-05-13T10:45:46.830Z,97455.56
2018-05-13T10:48:14.289Z,97452.31
2018-05-13T10:50:41.764Z,97453.39
2018-05-13T10:53:09.225Z,97453.67
2018-05-13T10:55:36.679Z,97448.94
2018-05-13T10:58:04.145Z,97440.20
2018-05-13T11:00:31.600Z,97437.92
2018-05-13T11:02:59.063Z,97433.09
2018-05-13T11:05:26.571Z,97432.77
2018-05-13T11:07:54.039Z,97432.56
2018-05-13T11:10:21.614Z,97429.52
2018-05-13T11:12:49.042Z,97431.45
2018-05-13T11:15:16.506Z,97422.64
2018-05-13T11:17:43.978Z,97424.00
2018-05-13T11:20:11.473Z,97426.17
2018-05-13T11:22:38.944Z,97427.87
2018-05-13T11:25:06.412Z,97423.99
2018-05-13T11:27:33.880Z,97410.59
2018-05-13T11:30:01.361Z,97412.18
2018-05-13T11:32:28.821Z,97402.95
2018-05-13T11:34:56.300Z,97401.17
2018-05-13T11:37:23.759Z,97398.80
2018-05-13T11:39:51.276Z,97395.33
2018-05-13T11:42:18.722Z,97396.81
2018-05-13T11:44:46.182Z,97390.30
2018-05-13T11:47:13.671Z,97388.30
2018-05-13T11:49:41.137Z,97389.70
2018-05-13T11:52:08.640Z,97387.08
2018-05-13T11:54:36.110Z,97380.68
2018-05-13T11:57:03.567Z,97376.09
2018-05-13T11:59:31.042Z,97370.88
2018-05-13T12:01:58.503Z,97377.69
2018-05-13T12:04:25.980Z,97361.58
2018-05-13T12:06:53.435Z,97362.84
2018-05-13T12:09:20.887Z,97350.16
2018-05-13T12:11:48.358Z,97343.47
2018-05-13T12:14:15.820Z,97350.20
2018-05-13T12:16:43.293Z,97339.80
2018-05-13T12:19:10.759Z,97338.67
2018-05-13T12:21:38.220Z,97341.34
2018-05-13T12:24:05.695Z,97343.51
2018-05-13T12:26:33.151Z,97335.02
2018-05-13T12:29:00.712Z,97330.75
2018-05-13T12:31:28.111Z,97332.33
2018-05-13T12:33:55.601Z,97334.05
2018-05-13T12:36:23.087Z,97330.95
2018-05-13T12:38:50.545Z,97332.48
2018-05-13T12:41:18.181Z,97328.61
2018-05-13T12:43:45.636Z,97319.84
2018-05-13T12:46:13.096Z,97312.38
2018-05-13T12:48:40.585Z,97312.13
2018-05-13T12:51:08.053Z,97309.94
2018-05-13T12:53:35.522Z,97308.56
2018-05-13T12:56:02.976Z,97312.56
2018-05-13T12:58:30.538Z,97314.09
2018-05-13T13:00:57.947Z,97311.28
2018-05-13T13:03:25.400Z,97305.98
2018-05-13T13:05:52.879Z,97309.69
2018-05-13T13:08:20.351Z,97301.03
2018-05-13T13:10:47.826Z,97295.27
2018-05-13T13:13:15.301Z,97298.08
2018-05-13T13:15:42.751Z,97303.13
2018-05-13T13:18:10.237Z,97296.92
2018-05-13T13:20:37.697Z,97289.78
2018-05-13T13:23:05.163Z,97291.03
2018-05-13T13:25:32.645Z,97282.01
2018-05-13T13:28:00.125Z,97281.48
2018-05-13T13:30:27.715Z,97270.94
2018-05-13T13:32:55.073Z,97271.69
2018-05-13T13:35:22.544Z,97269.22
2018-05-13T13:37:50.021Z,97262.76
2018-05-13T13:40:17.481Z,97252.79
2018-05-13T13:42:44.954Z,97253.86
2018-05-13T13:45:12.419Z,97250.37
2018-05-13T13:47:39.884Z,97247.36
2018-05-13T13:50:07.369Z,97247.23
2018-05-13T13:52:34.827Z,97247.78
2018-05-13T13:55:02.327Z,97245.08
2018-05-13T13:57:29.808Z,97254.94
2018-05-13T13:59:57.271Z,97252.11
2018-05-13T14:02:24.760Z,97255.06
2018-05-13T14:04:52.227Z,97249.36
2018-05-13T14:07:19.697Z,97250.89
2018-05-13T14:09:47.148Z,97244.91
2018-05-13T14:12:14.620Z,97248.58
2018-05-13T14:14:42.083Z,97243.92
2018-05-13T14:17:10.130Z,97241.91
2018-05-13T14:19:37.609Z,97240.26
2018-05-13T14:22:05.064Z,97239.75
2018-05-13T14:24:32.541Z,97240.55
2018-05-13T14:27:00.020Z,97232.31
2018-05-13T14:29:29.611Z,97237.23
2018-05-13T14:31:57.086Z,97228.67
2018-05-13T14:34:24.541Z,97227.16
2018-05-13T14:36:52.015Z,97225.03
2018-05-13T14:39:19.498Z,97226.06
2018-05-13T14:41:46.992Z,97226.83
2018-05-13T14:44:14.552Z,97231.73
2018-05-13T14:46:42.032Z,97228.49
2018-05-13T14:49:09.523Z,97224.34
2018-05-13T14:51:36.995Z,97224.62
2018-05-13T14:54:04.476Z,97231.64
2018-05-13T14:56:31.933Z,97221.70
2018-05-13T14:58:59.384Z,97228.30
2018-05-13T15:01:26.874Z,97228.60
2018-05-13T15:03:54.356Z,97222.36
2018-05-13T15:06:21.834Z,97219.23
2018-05-13T15:08:49.301Z,97219.47
2018-05-13T15:11:16.778Z,97214.28
2018-05-13T15:13:44.337Z,97220.49
2018-05-13T15:16:11.797Z,97206.23
2018-05-13T15:18:39.288Z,97211.63
2018-05-13T15:21:06.749Z,97204.34
2018-05-13T15:23:34.221Z,97198.69
2018-05-13T15:26:01.706Z,97202.58
2018-05-13T15:28:29.180Z,97194.86
2018-05-13T15:30:56.690Z,97197.13
2018-05-13T15:33:24.161Z,97192.14
2018-05-13T15:35:51.611Z,97192.04
2018-05-13T15:38:19.081Z,97187.93
2018-05-13T15:40:46.544Z,97194.88
2018-05-13T15:43:14.168Z,97182.92
2018-05-13T15:45:41.636Z,97194.31
2018-05-13T15:48:09.109Z,97194.61
2018-05-13T15:50:36.605Z,97194.63
2018-05-13T15:53:04.553Z,97198.14
2018-05-13T15:55:32.029Z,97196.30
2018-05-13T15:57:59.495Z,97193.25
2018-05-13T16:00:26.964Z,97188.00
2018-05-13T16:02:54.445Z,97188.62
2018-05-13T16:05:21.996Z,97188.52
2018-05-13T16:07:49.479Z,97190.84
2018-05-13T16:10:16.934Z,97183.88
2018-05-13T16:12:44.416Z,97185.23
2018-05-13T16:15:11.888Z,97183.73
2018-05-13T16:17:39.340Z,97183.52
2018-05-13T16:20:06.843Z,97173.00
2018-05-13T16:22:34.295Z,97180.42
2018-05-13T16:25:01.781Z,97190.45
2018-05-13T16:27:29.242Z,97192.88
2018-05-13T16:29:56.728Z,97196.05
2018-05-13T16:32:24.237Z,97199.31
2018-05-13T16:34:51.709Z,97202.25
2018-05-13T16:37:19.224Z,97204.25
2018-05-13T16:39:46.711Z,97205.41
2018-05-13T16:42:14.168Z,97204.97
2018-05-13T16:44:41.653Z,97200.03
2018-05-13T16:47:09.119Z,97189.56
2018-05-13T16:49:36.814Z,97184.12
2018-05-13T16:52:04.277Z,97187.75
2018-05-13T16:54:31.753Z,97195.39
2018-05-13T16:56:59.506Z,97190.06
2018-05-13T16:59:27.370Z,97186.13
2018-05-13T17:01:54.864Z,97186.88
2018-05-13T17:04:22.332Z,97179.36
2018-05-13T17:06:49.795Z,97176.16
2018-05-13T17:09:17.365Z,97193.34
2018-05-13T17:11:44.753Z,97196.95
2018-05-13T17:14:12.696Z,97184.62
2018-05-13T17:16:40.155Z,97186.37
2018-05-13T17:19:07.867Z,97188.30
2018-05-13T17:21:35.352Z,97182.70
2018-05-13T17:24:02.911Z,97182.49
2018-05-13T17:26:30.884Z,97182.94
2018-05-13T17:28:58.516Z,97173.45
2018-05-13T17:31:25.971Z,97176.38
2018-05-13T17:33:54.185Z,97172.60
2018-05-13T17:36:21.638Z,97169.21
2018-05-13T17:38:50.287Z,97164.55
2018-05-13T17:41:17.858Z,97166.58
2018-05-13T17:43:45.325Z,97161.64
2018-05-13T17:46:12.797Z,97159.92
2018-05-13T17:48:40.507Z,97151.34
2018-05-13T17:51:08.620Z,97152.13
2018-05-13T17:53:36.190Z,97150.34
2018-05-13T17:56:03.656Z,97150.70
2018-05-13T17:58:31.954Z,97152.77
2018-05-13T18:00:59.445Z,97157.21
2018-05-13T18:03:26.939Z,97155.53
2018-05-13T18:05:54.399Z,97152.16
2018-05-13T18:08:22.192Z,97161.39
2018-05-13T18:10:49.664Z,97159.27
2018-05-13T18:13:17.708Z,97161.38
2018-05-13T18:15:45.760Z,97164.27
2018-05-13T18:18:13.736Z,97165.20
2018-05-13T18:20:42.588Z,97166.17
2018-05-13T18:23:10.061Z,97167.08
2018-05-13T18:25:37.541Z,97182.68
2018-05-13T18:28:05.009Z,97164.74
2018-05-13T18:30:33.090Z,97173.81
2018-05-13T18:33:00.555Z,97177.42
2018-05-13T18:35:28.024Z,97178.28
2018-05-13T18:37:55.491Z,97177.53
2018-05-13T18:40:23.522Z,97176.44
2018-05-13T18:42:51.008Z,97182.57
2018-05-13T18:45:18.468Z,97192.08
2018-05-13T18:47:45.941Z,97185.62
2018-05-13T18:50:13.741Z,97187.88
2018-05-13T18:52:41.209Z,97191.73
2018-05-13T18:55:08.939Z,97194.91
2018-05-13T18:57:36.403Z,97198.15
2018-05-13T19:00:04.157Z,97191.86
2018-05-13T19:02:31.731Z,97207.96
2018-05-13T19:04:59.191Z,97203.54
2018-05-13T19:07:26.675Z,97203.31
2018-05-13T19:09:54.865Z,97217.02
2018-05-13T19:12:22.358Z,97217.84
2018-05-13T19:14:49.817Z,97198.78
2018-05-13T19:17:17.278Z,97213.92
2018-05-13T19:19:45.067Z,97213.20
2018-05-13T19:22:12.520Z,97224.72
2018-05-13T19:24:40.056Z,97226.26
2018-05-13T19:27:07.488Z,97221.62
2018-05-13T19:29:35.320Z,97236.95
2018-05-13T19:32:02.940Z,97243.97
2018-05-13T19:34:30.407Z,97241.19
2018-05-13T19:36:57.869Z,97235.09
2018-05-13T19:39:25.950Z,97240.22
2018-05-13T19:41:53.415Z,97241.98
2018-05-13T19:44:20.900Z,97253.01
2018-05-13T19:46:48.368Z,97245.99
2018-05-13T19:49:15.823Z,97244.86
2018-05-13T19:51:43.937Z,97253.38
2018-05-13T19:54:11.774Z,97256.81
2018-05-13T19:56:39.465Z,97263.41
2018-05-13T19:59:06.924Z,97264.84
2018-05-13T20:01:34.387Z,97264.72
2018-05-13T20:04:01.877Z,97265.24
2018-05-13T20:06:29.359Z,97269.31
2018-05-13T20:08:57.094Z,97267.98
2018-05-13T20:11:24.568Z,97277.73
2018-05-13T20:13:52.033Z,97275.55
2018-05-13T20:16:19.509Z,97278.05
2018-05-13T20:18:46.967Z,97281.45
2018-05-13T20:21:14.492Z,97283.38
2018-05-13T20:23:41.935Z,97284.61
2018-05-13T20:26:09.392Z,97281.52
2018-05-13T20:28:36.876Z,97279.72
2018-05-13T20:31:04.343Z,97279.74
2018-05-13T20:33:31.819Z,97281.28
2018-05-13T20:35:59.372Z,97284.70
2018-05-13T20:38:26.760Z,97288.16
2018-05-13T20:40:54.235Z,97289.50
2018-05-13T20:43:21.693Z,97295.51
2018-05-13T20:45:49.170Z,97295.95
2018-05-13T20:48:16.624Z,97291.85
2018-05-13T20:50:44.150Z,97292.26
2018-05-13T20:53:11.630Z,97294.22
2018-05-13T20:55:39.150Z,97298.73
2018-05-13T20:58:06.869Z,97294.31
2018-05-13T21:00:34.327Z,97294.20
2018-05-13T21:03:01.836Z,97288.55
2018-05-13T21:05:29.299Z,97294.31
2018-05-13T21:07:56.761Z,97288.98
2018-05-13T21:10:24.259Z,97281.24
2018-05-13T21:12:51.907Z,97286.11
2018-05-13T21:15:19.407Z,97286.02
2018-05-13T21:17:46.859Z,97285.98
2018-05-13T21:20:14.334Z,97280.76
2018-05-13T21:22:41.824Z,97280.09
2018-05-13T21:25:09.397Z,97274.07
2018-05-13T21:27:36.880Z,97277.12
2018-05-13T21:30:04.418Z,97272.83
2018-05-13T21:32:31.900Z,97276.92
2018-05-13T21:34:59.375Z,97282.78
2018-05-13T21:37:26.833Z,97279.13
2018-05-13T21:39:54.614Z,97275.92
2018-05-13T21:42:22.071Z,97274.71
2018-05-13T21:44:49.540Z,97270.20
2018-05-13T21:47:17.018Z,97274.20
2018-05-13T21:49:44.471Z,97280.11
2018-05-13T21:52:11.981Z,97270.82
2018-05-13T21:54:39.478Z,97290.89
2018-05-13T21:57:06.918Z,97286.05
2018-05-13T21:59:34.405Z,97290.59
2018-05-13T22:02:01.866Z,97291.73
2018-05-13T22:04:29.356Z,97284.94
2018-05-13T22:06:56.830Z,97284.56
2018-05-13T22:09:24.287Z,97279.98
2018-05-13T22:11:51.903Z,97282.88
2018-05-13T22:14:19.365Z,97290.36
2018-05-13T22:16:46.840Z,97284.00
2018-05-13T22:19:14.292Z,97280.38
2018-05-13T22:21:41.752Z,97288.06
2018-05-13T22:24:09.228Z,97292.66
2018-05-13T22:26:36.700Z,97280.08
2018-05-13T22:29:04.196Z,97287.52
2018-05-13T22:31:31.659Z,97284.70
2018-05-13T22:33:59.120Z,97282.55
2018-05-13T22:36:26.655Z,97280.95
2018-05-13T22:38:54.344Z,97280.78
2018-05-13T22:41:21.832Z,97277.75
2018-05-13T22:43:49.287Z,97269.23
2018-05-13T22:46:16.756Z,97274.03
2018-05-13T22:48:44.235Z,97266.78
2018-05-13T22:51:11.700Z,97264.15
2018-05-13T22:53:39.170Z,97263.53
2018-05-13T22:56:06.641Z,97270.06
2018-05-13T22:58:34.128Z,97266.08
2018-05-13T23:01:01.591Z,97270.02
2018-05-13T23:03:29.048Z,97263.52
2018-05-13T23:05:56.544Z,97264.81
2018-05-13T23:08:23.999Z,97265.70
2018-05-13T23:10:51.476Z,97266.86
2018-05-13T23:13:18.932Z,97269.95
2018-05-13T23:15:46.397Z,97272.03
2018-05-13T23:18:13.872Z,97268.56
2018-05-13T23:20:41.337Z,97267.23
2018-05-13T23:23:08.813Z,97268.48
2018-05-13T23:25:36.264Z,97258.44
2018-05-13T23:28:03.744Z,97260.11
2018-05-13T23:30:31.304Z,97259.78
2018-05-13T23:32:58.752Z,97261.82
2018-05-13T23:35:26.232Z,97256.16
2018-05-13T23:37:53.690Z,97251.69
2018-05-13T23:40:21.171Z,97256.40
2018-05-13T23:42:48.623Z,97253.36
2018-05-13T23:45:16.076Z,97243.39
2018-05-13T23:47:43.554Z,97245.64
2018-05-13T23:50:11.013Z,97252.06
2018-05-13T23:52:38.484Z,97245.52
2018-05-13T23:55:05.936Z,97247.02
2018-05-13T23:57:33.597Z,97250.35
